sensor_id;sensor_type;location;lat;lon;timestamp;pressure;altitude;pressure_sealevel;temperature;humidity
12636;BME280;6383;50.830;7.210;2023-04-15T00:00:34;99983.16;;;9.88;55.27
12636;BME280;6383;50.830;7.210;2023-04-15T00:03:03;99982.97;;;9.85;55.35
12636;BME280;6383;50.830;7.210;2023-04-15T00:05:31;99973.53;;;9.82;54.79
12636;BME280;6383;50.830;7.210;2023-04-15T00:07:59;99976.25;;;9.82;54.69
12636;BME280;6383;50.830;7.210;2023-04-15T00:10:28;99974.94;;;9.80;54.94
12636;BME280;6383;50.830;7.210;2023-04-15T00:12:56;99972.84;;;9.77;54.72
12636;BME280;6383;50.830;7.210;2023-04-15T00:15:26;99975.38;;;9.73;55.56
12636;BME280;6383;50.830;7.210;2023-04-15T00:17:55;99970.06;;;9.68;54.76
12636;BME280;6383;50.830;7.210;2023-04-15T00:20:24;99967.78;;;9.62;54.69
12636;BME280;6383;50.830;7.210;2023-04-15T00:22:53;99976.84;;;9.57;55.94
12636;BME280;6383;50.830;7.210;2023-04-15T00:25:22;99972.03;;;9.54;55.97
12636;BME280;6383;50.830;7.210;2023-04-15T00:27:50;99968.00;;;9.51;55.70
12636;BME280;6383;50.830;7.210;2023-04-15T00:30:19;99969.75;;;9.47;56.10
12636;BME280;6383;50.830;7.210;2023-04-15T00:32:48;99969.56;;;9.44;54.99
12636;BME280;6383;50.830;7.210;2023-04-15T00:35:15;99974.50;;;9.42;55.07
12636;BME280;6383;50.830;7.210;2023-04-15T00:37:44;99971.59;;;9.38;55.00
12636;BME280;6383;50.830;7.210;2023-04-15T00:40:12;99962.47;;;9.34;55.34
12636;BME280;6383;50.830;7.210;2023-04-15T00:42:42;99970.41;;;9.31;55.83
12636;BME280;6383;50.830;7.210;2023-04-15T00:45:11;99975.66;;;9.27;55.26
12636;BME280;6383;50.830;7.210;2023-04-15T00:47:40;99973.53;;;9.24;56.19
12636;BME280;6383;50.830;7.210;2023-04-15T00:50:11;99970.31;;;9.22;56.15
12636;BME280;6383;50.830;7.210;2023-04-15T00:52:39;99976.06;;;9.20;55.37
12636;BME280;6383;50.830;7.210;2023-04-15T00:55:07;99968.53;;;9.17;55.79
12636;BME280;6383;50.830;7.210;2023-04-15T00:57:35;99969.66;;;9.16;56.86
12636;BME280;6383;50.830;7.210;2023-04-15T01:00:07;99967.22;;;9.15;56.13
12636;BME280;6383;50.830;7.210;2023-04-15T01:02:36;99964.81;;;9.13;56.00
12636;BME280;6383;50.830;7.210;2023-04-15T01:05:05;99967.84;;;9.12;56.64
12636;BME280;6383;50.830;7.210;2023-04-15T01:07:34;99971.16;;;9.09;56.16
12636;BME280;6383;50.830;7.210;2023-04-15T01:10:03;99962.50;;;9.07;57.31
12636;BME280;6383;50.830;7.210;2023-04-15T01:12:31;99961.72;;;9.06;57.20
12636;BME280;6383;50.830;7.210;2023-04-15T01:15:01;99963.16;;;9.04;56.60
12636;BME280;6383;50.830;7.210;2023-04-15T01:17:28;99962.66;;;9.02;57.23
12636;BME280;6383;50.830;7.210;2023-04-15T01:19:56;99969.97;;;9.01;57.25
12636;BME280;6383;50.830;7.210;2023-04-15T01:22:26;99968.69;;;8.99;56.24
12636;BME280;6383;50.830;7.210;2023-04-15T01:25:02;99969.28;;;8.96;56.79
12636;BME280;6383;50.830;7.210;2023-04-15T01:27:34;99963.16;;;8.90;56.85
12636;BME280;6383;50.830;7.210;2023-04-15T01:30:02;99957.53;;;8.87;56.29
12636;BME280;6383;50.830;7.210;2023-04-15T01:32:30;99960.84;;;8.83;56.75
12636;BME280;6383;50.830;7.210;2023-04-15T01:34:59;99963.34;;;8.80;57.26
12636;BME280;6383;50.830;7.210;2023-04-15T01:37:28;99968.28;;;8.78;57.53
12636;BME280;6383;50.830;7.210;2023-04-15T01:39:56;99966.19;;;8.75;57.10
12636;BME280;6383;50.830;7.210;2023-04-15T01:42:25;99971.41;;;8.71;57.81
12636;BME280;6383;50.830;7.210;2023-04-15T01:44:56;99972.00;;;8.68;57.74
12636;BME280;6383;50.830;7.210;2023-04-15T01:47:24;99969.91;;;8.65;57.60
12636;BME280;6383;50.830;7.210;2023-04-15T01:49:53;99971.31;;;8.63;57.95
12636;BME280;6383;50.830;7.210;2023-04-15T01:52:21;99975.44;;;8.60;57.01
12636;BME280;6383;50.830;7.210;2023-04-15T01:54:51;99963.28;;;8.58;57.13
12636;BME280;6383;50.830;7.210;2023-04-15T01:57:20;99963.88;;;8.55;57.47
12636;BME280;6383;50.830;7.210;2023-04-15T01:59:47;99964.97;;;8.54;57.63
12636;BME280;6383;50.830;7.210;2023-04-15T02:02:18;99968.00;;;8.52;58.02
12636;BME280;6383;50.830;7.210;2023-04-15T02:04:45;99969.69;;;8.48;57.54
12636;BME280;6383;50.830;7.210;2023-04-15T02:07:14;99963.75;;;8.46;57.96
12636;BME280;6383;50.830;7.210;2023-04-15T02:09:43;99962.78;;;8.42;57.81
12636;BME280;6383;50.830;7.210;2023-04-15T02:12:11;99961.75;;;8.38;57.89
12636;BME280;6383;50.830;7.210;2023-04-15T02:14:40;99964.25;;;8.34;57.40
12636;BME280;6383;50.830;7.210;2023-04-15T02:17:08;99968.66;;;8.30;57.50
12636;BME280;6383;50.830;7.210;2023-04-15T02:19:37;99971.69;;;8.29;58.68
12636;BME280;6383;50.830;7.210;2023-04-15T02:22:06;99963.34;;;8.25;57.81
12636;BME280;6383;50.830;7.210;2023-04-15T02:24:34;99963.94;;;8.22;57.56
12636;BME280;6383;50.830;7.210;2023-04-15T02:27:03;99976.16;;;8.20;58.09
12636;BME280;6383;50.830;7.210;2023-04-15T02:29:32;99965.13;;;8.16;58.84
12636;BME280;6383;50.830;7.210;2023-04-15T02:32:00;99966.53;;;8.13;58.56
12636;BME280;6383;50.830;7.210;2023-04-15T02:34:27;99971.44;;;8.11;58.51
12636;BME280;6383;50.830;7.210;2023-04-15T02:36:57;99969.53;;;8.12;58.86
12636;BME280;6383;50.830;7.210;2023-04-15T02:39:25;99972.53;;;8.10;58.71
12636;BME280;6383;50.830;7.210;2023-04-15T02:41:53;99973.66;;;8.09;58.25
12636;BME280;6383;50.830;7.210;2023-04-15T02:44:22;99991.81;;;8.09;58.28
12636;BME280;6383;50.830;7.210;2023-04-15T02:46:51;99992.63;;;8.09;58.53
12636;BME280;6383;50.830;7.210;2023-04-15T02:49:21;99991.00;;;8.08;58.63
12636;BME280;6383;50.830;7.210;2023-04-15T02:51:50;99985.88;;;8.07;59.21
12636;BME280;6383;50.830;7.210;2023-04-15T02:54:19;99984.78;;;8.08;59.70
12636;BME280;6383;50.830;7.210;2023-04-15T02:56:49;99981.78;;;8.09;59.82
12636;BME280;6383;50.830;7.210;2023-04-15T02:59:18;99982.56;;;8.10;59.19
12636;BME280;6383;50.830;7.210;2023-04-15T03:01:47;99993.41;;;8.10;59.40
12636;BME280;6383;50.830;7.210;2023-04-15T03:04:15;99987.19;;;8.09;59.44
12636;BME280;6383;50.830;7.210;2023-04-15T03:06:44;99994.00;;;8.07;58.68
12636;BME280;6383;50.830;7.210;2023-04-15T03:09:13;99993.28;;;8.01;59.09
12636;BME280;6383;50.830;7.210;2023-04-15T03:11:42;99992.50;;;8.01;58.71
12636;BME280;6383;50.830;7.210;2023-04-15T03:14:10;99995.81;;;7.98;58.97
12636;BME280;6383;50.830;7.210;2023-04-15T03:16:39;99996.38;;;7.95;58.77
12636;BME280;6383;50.830;7.210;2023-04-15T03:19:06;99996.97;;;7.92;59.29
12636;BME280;6383;50.830;7.210;2023-04-15T03:21:35;99999.47;;;7.88;59.40
12636;BME280;6383;50.830;7.210;2023-04-15T03:24:04;99989.53;;;7.84;58.80
12636;BME280;6383;50.830;7.210;2023-04-15T03:26:33;99998.25;;;7.81;60.05
12636;BME280;6383;50.830;7.210;2023-04-15T03:29:02;100001.25;;;7.79;59.72
12636;BME280;6383;50.830;7.210;2023-04-15T03:31:32;100008.34;;;7.75;59.15
12636;BME280;6383;50.830;7.210;2023-04-15T03:34:01;100010.53;;;7.73;58.99
12636;BME280;6383;50.830;7.210;2023-04-15T03:36:29;100004.13;;;7.69;59.29
12636;BME280;6383;50.830;7.210;2023-04-15T03:38:59;100009.84;;;7.67;59.18
12636;BME280;6383;50.830;7.210;2023-04-15T03:41:27;100010.13;;;7.66;59.46
12636;BME280;6383;50.830;7.210;2023-04-15T03:43:56;100012.31;;;7.64;59.41
12636;BME280;6383;50.830;7.210;2023-04-15T03:46:27;100016.94;;;7.63;59.27
12636;BME280;6383;50.830;7.210;2023-04-15T03:48:54;100015.31;;;7.62;59.54
12636;BME280;6383;50.830;7.210;2023-04-15T03:51:23;100022.34;;;7.63;59.52
12636;BME280;6383;50.830;7.210;2023-04-15T03:53:53;100016.13;;;7.63;60.35
12636;BME280;6383;50.830;7.210;2023-04-15T03:56:22;100019.94;;;7.62;60.09
12636;BME280;6383;50.830;7.210;2023-04-15T03:58:51;100021.84;;;7.61;59.75
12636;BME280;6383;50.830;7.210;2023-04-15T04:01:19;100019.13;;;7.61;59.76
12636;BME280;6383;50.830;7.210;2023-04-15T04:03:50;100010.50;;;7.59;60.55
12636;BME280;6383;50.830;7.210;2023-04-15T04:06:19;100013.47;;;7.58;60.64
12636;BME280;6383;50.830;7.210;2023-04-15T04:08:46;100011.69;;;7.53;60.49
12636;BME280;6383;50.830;7.210;2023-04-15T04:11:14;100018.78;;;7.49;59.91
12636;BME280;6383;50.830;7.210;2023-04-15T04:13:43;100017.75;;;7.45;59.73
12636;BME280;6383;50.830;7.210;2023-04-15T04:16:12;100021.34;;;7.40;60.22
12636;BME280;6383;50.830;7.210;2023-04-15T04:18:41;100015.41;;;7.38;60.37
12636;BME280;6383;50.830;7.210;2023-04-15T04:21:09;100019.50;;;7.36;59.99
12636;BME280;6383;50.830;7.210;2023-04-15T04:23:37;100021.41;;;7.35;59.89
12636;BME280;6383;50.830;7.210;2023-04-15T04:26:06;100018.19;;;7.33;60.22
12636;BME280;6383;50.830;7.210;2023-04-15T04:28:34;100023.06;;;7.31;60.74
12636;BME280;6383;50.830;7.210;2023-04-15T04:31:03;100020.66;;;7.30;60.88
12636;BME280;6383;50.830;7.210;2023-04-15T04:33:31;100027.69;;;7.31;61.00
12636;BME280;6383;50.830;7.210;2023-04-15T04:35:59;100025.50;;;7.33;60.81
12636;BME280;6383;50.830;7.210;2023-04-15T04:38:29;100026.59;;;7.32;60.81
12636;BME280;6383;50.830;7.210;2023-04-15T04:40:57;100024.97;;;7.31;60.74
12636;BME280;6383;50.830;7.210;2023-04-15T04:43:25;100039.31;;;7.31;60.82
12636;BME280;6383;50.830;7.210;2023-04-15T04:45:54;100036.63;;;7.31;60.69
12636;BME280;6383;50.830;7.210;2023-04-15T04:48:23;100035.81;;;7.31;60.68
12636;BME280;6383;50.830;7.210;2023-04-15T04:50:52;100036.63;;;7.31;61.25
12636;BME280;6383;50.830;7.210;2023-04-15T04:53:20;100046.63;;;7.31;60.87
12636;BME280;6383;50.830;7.210;2023-04-15T04:55:51;100044.72;;;7.31;60.61
12636;BME280;6383;50.830;7.210;2023-04-15T04:58:20;100052.56;;;7.33;60.79
12636;BME280;6383;50.830;7.210;2023-04-15T05:00:49;100058.78;;;7.33;60.84
12636;BME280;6383;50.830;7.210;2023-04-15T05:03:17;100056.38;;;7.32;61.03
12636;BME280;6383;50.830;7.210;2023-04-15T05:05:46;100060.47;;;7.29;61.41
12636;BME280;6383;50.830;7.210;2023-04-15T05:08:16;100052.94;;;7.26;60.21
12636;BME280;6383;50.830;7.210;2023-04-15T05:10:45;100058.94;;;7.23;60.69
12636;BME280;6383;50.830;7.210;2023-04-15T05:13:14;100060.03;;;7.22;61.65
12636;BME280;6383;50.830;7.210;2023-04-15T05:15:42;100068.44;;;7.21;60.68
12636;BME280;6383;50.830;7.210;2023-04-15T05:18:12;100072.22;;;7.20;60.91
12636;BME280;6383;50.830;7.210;2023-04-15T05:20:40;100063.59;;;7.18;61.15
12636;BME280;6383;50.830;7.210;2023-04-15T05:23:09;100066.00;;;7.19;61.10
12636;BME280;6383;50.830;7.210;2023-04-15T05:25:38;100068.72;;;7.19;60.87
12636;BME280;6383;50.830;7.210;2023-04-15T05:28:07;100077.13;;;7.18;61.03
12636;BME280;6383;50.830;7.210;2023-04-15T05:30:38;100064.97;;;7.15;61.71
12636;BME280;6383;50.830;7.210;2023-04-15T05:33:07;100075.78;;;7.15;61.54
12636;BME280;6383;50.830;7.210;2023-04-15T05:35:35;100076.88;;;7.14;61.75
12636;BME280;6383;50.830;7.210;2023-04-15T05:38:04;100090.94;;;7.16;62.25
12636;BME280;6383;50.830;7.210;2023-04-15T05:40:33;100091.97;;;7.20;62.00
12636;BME280;6383;50.830;7.210;2023-04-15T05:43:02;100099.53;;;7.23;62.58
12636;BME280;6383;50.830;7.210;2023-04-15T05:45:30;100101.34;;;7.28;62.99
12636;BME280;6383;50.830;7.210;2023-04-15T05:47:59;100117.25;;;7.34;62.96
12636;BME280;6383;50.830;7.210;2023-04-15T05:50:28;100109.06;;;7.39;62.99
12636;BME280;6383;50.830;7.210;2023-04-15T05:52:57;100105.69;;;7.48;62.74
12636;BME280;6383;50.830;7.210;2023-04-15T05:55:26;100103.47;;;7.55;63.11
12636;BME280;6383;50.830;7.210;2023-04-15T05:57:55;100109.00;;;7.63;62.90
12636;BME280;6383;50.830;7.210;2023-04-15T06:00:30;100107.06;;;7.69;63.84
12636;BME280;6383;50.830;7.210;2023-04-15T06:02:59;100114.78;;;7.75;63.08
12636;BME280;6383;50.830;7.210;2023-04-15T06:05:27;100119.88;;;7.82;63.64
12636;BME280;6383;50.830;7.210;2023-04-15T06:07:56;100118.69;;;7.88;62.76
12636;BME280;6383;50.830;7.210;2023-04-15T06:10:25;100120.22;;;7.94;63.19
12636;BME280;6383;50.830;7.210;2023-04-15T06:12:55;100109.31;;;7.99;63.58
12636;BME280;6383;50.830;7.210;2023-04-15T06:15:22;100112.75;;;8.05;63.33
12636;BME280;6383;50.830;7.210;2023-04-15T06:17:51;100120.50;;;8.11;63.43
12636;BME280;6383;50.830;7.210;2023-04-15T06:20:22;100123.13;;;8.17;63.59
12636;BME280;6383;50.830;7.210;2023-04-15T06:22:51;100131.41;;;8.25;63.63
12636;BME280;6383;50.830;7.210;2023-04-15T06:25:20;100128.63;;;8.30;63.43
12636;BME280;6383;50.830;7.210;2023-04-15T06:27:48;100125.25;;;8.38;62.96
12636;BME280;6383;50.830;7.210;2023-04-15T06:30:16;100135.75;;;8.45;63.32
12636;BME280;6383;50.830;7.210;2023-04-15T06:32:45;100137.25;;;8.51;63.79
12636;BME280;6383;50.830;7.210;2023-04-15T06:35:13;100135.78;;;8.59;63.08
12636;BME280;6383;50.830;7.210;2023-04-15T06:37:43;100146.22;;;8.65;63.83
12636;BME280;6383;50.830;7.210;2023-04-15T06:40:12;100136.63;;;8.73;63.07
12636;BME280;6383;50.830;7.210;2023-04-15T06:42:41;100140.53;;;8.80;63.23
12636;BME280;6383;50.830;7.210;2023-04-15T06:45:10;100129.81;;;8.89;63.31
12636;BME280;6383;50.830;7.210;2023-04-15T06:47:39;100147.81;;;8.99;64.01
12636;BME280;6383;50.830;7.210;2023-04-15T06:50:09;100151.72;;;9.06;63.77
12636;BME280;6383;50.830;7.210;2023-04-15T06:52:38;100151.56;;;9.16;64.07
12636;BME280;6383;50.830;7.210;2023-04-15T06:55:09;100151.63;;;9.25;62.98
12636;BME280;6383;50.830;7.210;2023-04-15T06:57:38;100156.09;;;9.35;64.24
12636;BME280;6383;50.830;7.210;2023-04-15T07:00:08;100155.88;;;9.45;63.06
12636;BME280;6383;50.830;7.210;2023-04-15T07:02:38;100146.69;;;9.54;63.51
12636;BME280;6383;50.830;7.210;2023-04-15T07:05:08;100155.75;;;9.64;63.22
12636;BME280;6383;50.830;7.210;2023-04-15T07:07:36;100161.78;;;9.74;63.79
12636;BME280;6383;50.830;7.210;2023-04-15T07:10:06;100166.97;;;9.84;62.57
12636;BME280;6383;50.830;7.210;2023-04-15T07:12:38;100155.09;;;9.94;63.25
12636;BME280;6383;50.830;7.210;2023-04-15T07:15:07;100160.59;;;10.03;62.28
12636;BME280;6383;50.830;7.210;2023-04-15T07:17:34;100164.50;;;10.10;62.43
12636;BME280;6383;50.830;7.210;2023-04-15T07:20:04;100162.72;;;10.19;63.00
12636;BME280;6383;50.830;7.210;2023-04-15T07:22:34;100169.31;;;10.27;62.73
12636;BME280;6383;50.830;7.210;2023-04-15T07:25:03;100161.53;;;10.34;63.28
12636;BME280;6383;50.830;7.210;2023-04-15T07:27:33;100160.00;;;10.42;62.70
12636;BME280;6383;50.830;7.210;2023-04-15T07:30:02;100160.88;;;10.51;63.24
12636;BME280;6383;50.830;7.210;2023-04-15T07:32:31;100161.22;;;10.58;63.39
12636;BME280;6383;50.830;7.210;2023-04-15T07:34:58;100175.72;;;10.67;62.87
12636;BME280;6383;50.830;7.210;2023-04-15T07:37:28;100168.19;;;10.73;61.65
12636;BME280;6383;50.830;7.210;2023-04-15T07:39:56;100167.28;;;10.77;62.07
12636;BME280;6383;50.830;7.210;2023-04-15T07:42:25;100176.13;;;10.83;61.52
12636;BME280;6383;50.830;7.210;2023-04-15T07:44:52;100171.03;;;10.90;63.10
12636;BME280;6383;50.830;7.210;2023-04-15T07:47:23;100175.09;;;11.01;62.64
12636;BME280;6383;50.830;7.210;2023-04-15T07:49:51;100172.91;;;11.12;61.96
12636;BME280;6383;50.830;7.210;2023-04-15T07:52:21;100178.88;;;11.22;61.54
12636;BME280;6383;50.830;7.210;2023-04-15T07:54:50;100180.22;;;11.34;61.46
12636;BME280;6383;50.830;7.210;2023-04-15T07:57:19;100178.81;;;11.45;61.39
12636;BME280;6383;50.830;7.210;2023-04-15T07:59:48;100175.00;;;11.54;61.60
12636;BME280;6383;50.830;7.210;2023-04-15T08:02:15;100170.88;;;11.65;61.57
12636;BME280;6383;50.830;7.210;2023-04-15T08:04:46;100176.03;;;11.76;60.29
12636;BME280;6383;50.830;7.210;2023-04-15T08:07:15;100183.13;;;11.85;60.44
12636;BME280;6383;50.830;7.210;2023-04-15T08:09:44;100180.41;;;11.94;59.67
12636;BME280;6383;50.830;7.210;2023-04-15T08:12:14;100195.34;;;12.05;59.96
12636;BME280;6383;50.830;7.210;2023-04-15T08:14:43;100193.75;;;12.13;58.79
12636;BME280;6383;50.830;7.210;2023-04-15T08:17:12;100200.00;;;12.22;58.36
12636;BME280;6383;50.830;7.210;2023-04-15T08:19:41;100204.22;;;12.28;57.76
12636;BME280;6383;50.830;7.210;2023-04-15T08:22:12;100217.34;;;12.34;57.43
12636;BME280;6383;50.830;7.210;2023-04-15T08:24:41;100196.50;;;12.39;57.48
12636;BME280;6383;50.830;7.210;2023-04-15T08:27:09;100202.59;;;12.44;57.09
12636;BME280;6383;50.830;7.210;2023-04-15T08:29:36;100200.50;;;12.50;56.55
12636;BME280;6383;50.830;7.210;2023-04-15T08:32:06;100203.41;;;12.53;56.11
12636;BME280;6383;50.830;7.210;2023-04-15T08:34:35;100211.75;;;12.57;56.28
12636;BME280;6383;50.830;7.210;2023-04-15T08:37:04;100210.00;;;12.61;54.98
12636;BME280;6383;50.830;7.210;2023-04-15T08:39:34;100206.28;;;12.65;55.75
12636;BME280;6383;50.830;7.210;2023-04-15T08:42:07;100217.03;;;12.70;55.64
12636;BME280;6383;50.830;7.210;2023-04-15T08:44:46;100218.47;;;12.77;55.29
12636;BME280;6383;50.830;7.210;2023-04-15T08:47:19;100228.09;;;12.83;54.41
12636;BME280;6383;50.830;7.210;2023-04-15T08:49:50;100224.41;;;12.87;54.85
12636;BME280;6383;50.830;7.210;2023-04-15T08:52:20;100223.09;;;12.93;54.13
12636;BME280;6383;50.830;7.210;2023-04-15T08:54:51;100224.22;;;13.01;54.50
12636;BME280;6383;50.830;7.210;2023-04-15T08:57:23;100225.19;;;13.05;54.73
12636;BME280;6383;50.830;7.210;2023-04-15T08:59:53;100217.28;;;13.12;54.19
12636;BME280;6383;50.830;7.210;2023-04-15T09:02:24;100227.28;;;13.17;54.29
12636;BME280;6383;50.830;7.210;2023-04-15T09:04:54;100234.16;;;13.23;54.53
12636;BME280;6383;50.830;7.210;2023-04-15T09:07:23;100222.41;;;13.31;53.78
12636;BME280;6383;50.830;7.210;2023-04-15T09:09:54;100226.53;;;13.37;53.41
12636;BME280;6383;50.830;7.210;2023-04-15T09:12:23;100229.09;;;13.42;52.65
12636;BME280;6383;50.830;7.210;2023-04-15T09:14:52;100230.88;;;13.47;51.96
12636;BME280;6383;50.830;7.210;2023-04-15T09:17:22;100240.34;;;13.49;51.38
12636;BME280;6383;50.830;7.210;2023-04-15T09:20:07;100242.41;;;13.52;50.69
12636;BME280;6383;50.830;7.210;2023-04-15T09:22:36;100244.50;;;13.55;50.03
12636;BME280;6383;50.830;7.210;2023-04-15T09:25:24;100244.47;;;13.64;50.58
12636;BME280;6383;50.830;7.210;2023-04-15T09:27:55;100250.06;;;13.67;50.20
12636;BME280;6383;50.830;7.210;2023-04-15T09:30:26;100248.75;;;13.73;49.89
12636;BME280;6383;50.830;7.210;2023-04-15T09:32:57;100253.69;;;13.80;50.25
12636;BME280;6383;50.830;7.210;2023-04-15T09:35:26;100259.47;;;13.87;49.55
12636;BME280;6383;50.830;7.210;2023-04-15T09:38:02;100262.16;;;13.96;49.90
12636;BME280;6383;50.830;7.210;2023-04-15T09:40:33;100260.84;;;14.02;49.49
12636;BME280;6383;50.830;7.210;2023-04-15T09:43:01;100259.53;;;14.08;49.83
12636;BME280;6383;50.830;7.210;2023-04-15T09:45:32;100258.84;;;14.11;49.61
12636;BME280;6383;50.830;7.210;2023-04-15T09:48:16;100260.59;;;14.16;49.58
12636;BME280;6383;50.830;7.210;2023-04-15T09:50:45;100269.28;;;14.18;49.32
12636;BME280;6383;50.830;7.210;2023-04-15T09:53:16;100259.28;;;14.22;50.08
12636;BME280;6383;50.830;7.210;2023-04-15T09:55:50;100270.03;;;14.27;48.40
12636;BME280;6383;50.830;7.210;2023-04-15T09:58:20;100264.22;;;14.28;48.71
12636;BME280;6383;50.830;7.210;2023-04-15T10:00:50;100264.69;;;14.30;48.84
12636;BME280;6383;50.830;7.210;2023-04-15T10:03:21;100273.06;;;14.34;48.53
12636;BME280;6383;50.830;7.210;2023-04-15T10:05:52;100271.59;;;14.36;48.49
12636;BME280;6383;50.830;7.210;2023-04-15T10:08:22;100274.47;;;14.40;48.51
12636;BME280;6383;50.830;7.210;2023-04-15T10:10:53;100278.50;;;14.42;47.92
12636;BME280;6383;50.830;7.210;2023-04-15T10:13:22;100271.53;;;14.45;47.58
12636;BME280;6383;50.830;7.210;2023-04-15T10:15:59;100279.91;;;14.49;47.60
12636;BME280;6383;50.830;7.210;2023-04-15T10:18:32;100277.31;;;14.52;47.88
12636;BME280;6383;50.830;7.210;2023-04-15T10:21:01;100274.34;;;14.57;47.71
12636;BME280;6383;50.830;7.210;2023-04-15T10:23:29;100272.56;;;14.61;47.74
12636;BME280;6383;50.830;7.210;2023-04-15T10:25:58;100274.31;;;14.66;46.73
12636;BME280;6383;50.830;7.210;2023-04-15T10:28:26;100280.38;;;14.71;47.87
12636;BME280;6383;50.830;7.210;2023-04-15T10:30:56;100278.56;;;14.75;47.76
12636;BME280;6383;50.830;7.210;2023-04-15T10:33:26;100284.66;;;14.81;47.55
12636;BME280;6383;50.830;7.210;2023-04-15T10:35:56;100286.69;;;14.84;47.00
12636;BME280;6383;50.830;7.210;2023-04-15T10:38:32;100280.09;;;14.85;47.54
12636;BME280;6383;50.830;7.210;2023-04-15T10:41:17;100290.38;;;14.88;48.24
12636;BME280;6383;50.830;7.210;2023-04-15T10:43:49;100289.72;;;14.91;48.09
12636;BME280;6383;50.830;7.210;2023-04-15T10:46:26;100288.56;;;14.92;48.11
12636;BME280;6383;50.830;7.210;2023-04-15T10:49:06;100288.56;;;14.92;47.76
12636;BME280;6383;50.830;7.210;2023-04-15T10:51:38;100299.19;;;14.94;48.00
12636;BME280;6383;50.830;7.210;2023-04-15T10:54:13;100298.88;;;14.95;48.53
12636;BME280;6383;50.830;7.210;2023-04-15T10:56:44;100301.72;;;14.99;48.11
12636;BME280;6383;50.830;7.210;2023-04-15T10:59:15;100298.97;;;14.99;48.42
12636;BME280;6383;50.830;7.210;2023-04-15T11:01:52;100301.38;;;15.00;48.62
12636;BME280;6383;50.830;7.210;2023-04-15T11:04:55;100301.53;;;15.04;48.66
12636;BME280;6383;50.830;7.210;2023-04-15T11:07:36;100303.78;;;15.02;48.05
12636;BME280;6383;50.830;7.210;2023-04-15T11:13:28;100309.16;;;14.98;48.78
12636;BME280;6383;50.830;7.210;2023-04-15T11:15:58;100316.22;;;14.99;48.82
12636;BME280;6383;50.830;7.210;2023-04-15T11:18:28;100318.97;;;14.99;48.87
12636;BME280;6383;50.830;7.210;2023-04-15T11:21:00;100330.72;;;15.00;48.88
12636;BME280;6383;50.830;7.210;2023-04-15T11:23:31;100330.72;;;15.00;49.16
12636;BME280;6383;50.830;7.210;2023-04-15T11:26:02;100331.19;;;15.02;49.41
12636;BME280;6383;50.830;7.210;2023-04-15T11:28:32;100334.28;;;15.00;49.46
12636;BME280;6383;50.830;7.210;2023-04-15T11:31:05;100338.94;;;15.00;49.50
12636;BME280;6383;50.830;7.210;2023-04-15T11:33:34;100345.94;;;14.97;49.34
12636;BME280;6383;50.830;7.210;2023-04-15T11:36:01;100345.47;;;14.95;49.59
12636;BME280;6383;50.830;7.210;2023-04-15T11:38:29;100348.19;;;14.95;49.35
12636;BME280;6383;50.830;7.210;2023-04-15T11:40:59;100352.41;;;14.93;49.74
12636;BME280;6383;50.830;7.210;2023-04-15T11:43:32;100362.09;;;14.90;49.16
12636;BME280;6383;50.830;7.210;2023-04-15T11:46:01;100352.13;;;14.86;49.80
12636;BME280;6383;50.830;7.210;2023-04-15T11:48:31;100375.97;;;14.85;49.68
12636;BME280;6383;50.830;7.210;2023-04-15T11:51:00;100377.81;;;14.81;49.57
12636;BME280;6383;50.830;7.210;2023-04-15T11:53:36;100383.94;;;14.78;49.69
12636;BME280;6383;50.830;7.210;2023-04-15T11:56:07;100375.44;;;14.71;49.50
12636;BME280;6383;50.830;7.210;2023-04-15T11:58:37;100390.94;;;14.67;49.64
12636;BME280;6383;50.830;7.210;2023-04-15T12:01:06;100384.84;;;14.61;49.44
12636;BME280;6383;50.830;7.210;2023-04-15T12:03:38;100388.25;;;14.58;50.41
12636;BME280;6383;50.830;7.210;2023-04-15T12:06:09;100397.47;;;14.54;50.93
12636;BME280;6383;50.830;7.210;2023-04-15T12:09:06;100401.19;;;14.49;50.51
12636;BME280;6383;50.830;7.210;2023-04-15T12:11:36;100413.13;;;14.44;50.99
12636;BME280;6383;50.830;7.210;2023-04-15T12:14:10;100426.19;;;14.39;50.78
12636;BME280;6383;50.830;7.210;2023-04-15T12:16:40;100428.78;;;14.35;51.44
12636;BME280;6383;50.830;7.210;2023-04-15T12:19:10;100431.69;;;14.30;50.85
12636;BME280;6383;50.830;7.210;2023-04-15T12:21:40;100434.94;;;14.24;51.05
12636;BME280;6383;50.830;7.210;2023-04-15T12:24:08;100440.91;;;14.17;51.44
12636;BME280;6383;50.830;7.210;2023-04-15T12:26:40;100446.22;;;14.13;51.81
12636;BME280;6383;50.830;7.210;2023-04-15T12:29:12;100446.44;;;14.08;52.32
12636;BME280;6383;50.830;7.210;2023-04-15T12:31:49;100449.34;;;14.03;52.14
12636;BME280;6383;50.830;7.210;2023-04-15T12:34:18;100463.97;;;13.99;52.42
12636;BME280;6383;50.830;7.210;2023-04-15T12:36:52;100463.03;;;13.95;52.75
12636;BME280;6383;50.830;7.210;2023-04-15T12:39:21;100472.22;;;13.90;52.89
12636;BME280;6383;50.830;7.210;2023-04-15T12:41:49;100482.19;;;13.86;53.14
12636;BME280;6383;50.830;7.210;2023-04-15T12:44:22;100476.56;;;13.83;53.41
12636;BME280;6383;50.830;7.210;2023-04-15T12:46:51;100483.16;;;13.82;53.38
12636;BME280;6383;50.830;7.210;2023-04-15T12:49:21;100492.50;;;13.81;53.55
12636;BME280;6383;50.830;7.210;2023-04-15T12:51:52;100483.34;;;13.76;53.88
12636;BME280;6383;50.830;7.210;2023-04-15T12:54:19;100484.78;;;13.74;53.89
12636;BME280;6383;50.830;7.210;2023-04-15T12:56:49;100502.00;;;13.74;54.59
12636;BME280;6383;50.830;7.210;2023-04-15T12:59:17;100503.13;;;13.73;54.60
12636;BME280;6383;50.830;7.210;2023-04-15T13:01:47;100508.13;;;13.71;54.80
12636;BME280;6383;50.830;7.210;2023-04-15T13:04:15;100503.78;;;13.70;55.79
12636;BME280;6383;50.830;7.210;2023-04-15T13:06:44;100506.50;;;13.70;55.37
12636;BME280;6383;50.830;7.210;2023-04-15T13:09:12;100508.28;;;13.66;55.45
12636;BME280;6383;50.830;7.210;2023-04-15T13:11:41;100512.78;;;13.62;55.52
12636;BME280;6383;50.830;7.210;2023-04-15T13:14:10;100520.84;;;13.59;55.50
12636;BME280;6383;50.830;7.210;2023-04-15T13:16:39;100512.94;;;13.57;56.35
12636;BME280;6383;50.830;7.210;2023-04-15T13:19:09;100516.31;;;13.54;57.06
12636;BME280;6383;50.830;7.210;2023-04-15T13:21:38;100530.63;;;13.51;56.83
12636;BME280;6383;50.830;7.210;2023-04-15T13:24:05;100537.56;;;13.49;57.48
12636;BME280;6383;50.830;7.210;2023-04-15T13:26:33;100532.72;;;13.46;57.58